sensor_id;sensor_type;location;lat;lon;timestamp;temperature;humidity
21302;DHT22;10810;48.270;9.996;2023-02-28T00:01:19;-1.40;99.90
21302;DHT22;10810;48.270;9.996;2023-02-28T00:03:46;0.30;99.90
21302;DHT22;10810;48.270;9.996;2023-02-28T00:06:14;-1.40;99.90
21302;DHT22;10810;48.270;9.996;2023-02-28T00:08:41;-1.20;99.90
21302;DHT22;10810;48.270;9.996;2023-02-28T00:11:10;-1.40;99.90
21302;DHT22;10810;48.270;9.996;2023-02-28T00:13:40;-1.20;99.90
21302;DHT22;10810;48.270;9.996;2023-02-28T00:16:10;-1.30;99.90
21302;DHT22;10810;48.270;9.996;2023-02-28T00:18:39;-1.00;99.90
21302;DHT22;10810;48.270;9.996;2023-02-28T00:21:08;0.30;99.90
21302;DHT22;10810;48.270;9.996;2023-02-28T00:23:35;-0.30;99.90
21302;DHT22;10810;48.270;9.996;2023-02-28T00:26:03;-1.20;99.90
21302;DHT22;10810;48.270;9.996;2023-02-28T00:28:31;-1.40;99.90
21302;DHT22;10810;48.270;9.996;2023-02-28T00:30:58;-0.80;99.90
21302;DHT22;10810;48.270;9.996;2023-02-28T00:33:29;0.20;99.90
21302;DHT22;10810;48.270;9.996;2023-02-28T00:36:04;-1.40;99.90
21302;DHT22;10810;48.270;9.996;2023-02-28T00:38:32;-1.40;99.90
21302;DHT22;10810;48.270;9.996;2023-02-28T00:40:59;0.60;99.90
21302;DHT22;10810;48.270;9.996;2023-02-28T00:43:31;-1.30;99.90
21302;DHT22;10810;48.270;9.996;2023-02-28T00:45:58;-1.40;99.90
21302;DHT22;10810;48.270;9.996;2023-02-28T00:48:26;-1.30;99.90
21302;DHT22;10810;48.270;9.996;2023-02-28T00:50:53;0.40;99.90
21302;DHT22;10810;48.270;9.996;2023-02-28T00:53:21;-1.00;99.90
21302;DHT22;10810;48.270;9.996;2023-02-28T00:55:49;-1.30;99.90
21302;DHT22;10810;48.270;9.996;2023-02-28T00:58:16;0.60;99.90
21302;DHT22;10810;48.270;9.996;2023-02-28T01:00:43;0.60;99.90
21302;DHT22;10810;48.270;9.996;2023-02-28T01:03:14;-1.30;99.90
21302;DHT22;10810;48.270;9.996;2023-02-28T01:05:44;-0.10;99.90
21302;DHT22;10810;48.270;9.996;2023-02-28T01:08:12;-1.30;99.90
21302;DHT22;10810;48.270;9.996;2023-02-28T01:10:43;-1.30;99.90
21302;DHT22;10810;48.270;9.996;2023-02-28T01:13:11;-1.30;99.90
21302;DHT22;10810;48.270;9.996;2023-02-28T01:15:41;-0.50;99.90
21302;DHT22;10810;48.270;9.996;2023-02-28T01:18:10;-2.00;99.90
21302;DHT22;10810;48.270;9.996;2023-02-28T01:20:37;0.70;99.90
21302;DHT22;10810;48.270;9.996;2023-02-28T01:23:08;0.20;99.90
21302;DHT22;10810;48.270;9.996;2023-02-28T01:25:36;-1.30;99.90
21302;DHT22;10810;48.270;9.996;2023-02-28T01:28:07;0.10;99.90
21302;DHT22;10810;48.270;9.996;2023-02-28T01:30:35;-0.10;99.90
21302;DHT22;10810;48.270;9.996;2023-02-28T01:33:02;0.50;99.90
21302;DHT22;10810;48.270;9.996;2023-02-28T01:35:32;-2.30;99.90
21302;DHT22;10810;48.270;9.996;2023-02-28T01:37:59;-1.30;99.90
21302;DHT22;10810;48.270;9.996;2023-02-28T01:40:28;-1.30;99.90
21302;DHT22;10810;48.270;9.996;2023-02-28T01:42:55;-1.20;99.90
21302;DHT22;10810;48.270;9.996;2023-02-28T01:45:26;0.60;99.90
21302;DHT22;10810;48.270;9.996;2023-02-28T01:48:07;-1.40;99.90
21302;DHT22;10810;48.270;9.996;2023-02-28T01:50:37;0.10;99.90
21302;DHT22;10810;48.270;9.996;2023-02-28T01:53:09;0.70;99.90
21302;DHT22;10810;48.270;9.996;2023-02-28T01:55:39;0.50;99.90
21302;DHT22;10810;48.270;9.996;2023-02-28T01:58:07;-0.80;99.90
21302;DHT22;10810;48.270;9.996;2023-02-28T02:00:35;-1.30;99.90
21302;DHT22;10810;48.270;9.996;2023-02-28T02:03:07;0.10;99.90
21302;DHT22;10810;48.270;9.996;2023-02-28T02:05:37;0.10;99.90
21302;DHT22;10810;48.270;9.996;2023-02-28T02:08:09;-1.40;99.90
21302;DHT22;10810;48.270;9.996;2023-02-28T02:10:44;-1.40;99.90
21302;DHT22;10810;48.270;9.996;2023-02-28T02:13:21;-1.40;99.90
21302;DHT22;10810;48.270;9.996;2023-02-28T02:15:56;-1.40;99.90
21302;DHT22;10810;48.270;9.996;2023-02-28T02:18:33;-0.40;99.90
21302;DHT22;10810;48.270;9.996;2023-02-28T02:21:26;-0.60;99.90
21302;DHT22;10810;48.270;9.996;2023-02-28T02:27:41;-1.40;99.90
21302;DHT22;10810;48.270;9.996;2023-02-28T02:30:35;-0.80;99.90
21302;DHT22;10810;48.270;9.996;2023-02-28T02:33:23;0.10;99.90
21302;DHT22;10810;48.270;9.996;2023-02-28T02:35:56;0.20;99.90
21302;DHT22;10810;48.270;9.996;2023-02-28T02:38:32;0.00;99.90
21302;DHT22;10810;48.270;9.996;2023-02-28T02:41:06;0.20;99.90
21302;DHT22;10810;48.270;9.996;2023-02-28T02:43:39;-1.40;99.90
21302;DHT22;10810;48.270;9.996;2023-02-28T02:46:10;-1.40;99.90
21302;DHT22;10810;48.270;9.996;2023-02-28T02:48:40;-1.40;99.90
21302;DHT22;10810;48.270;9.996;2023-02-28T02:51:14;-1.30;99.90
21302;DHT22;10810;48.270;9.996;2023-02-28T02:53:46;0.70;99.90
21302;DHT22;10810;48.270;9.996;2023-02-28T02:56:17;-1.30;99.90
21302;DHT22;10810;48.270;9.996;2023-02-28T02:58:47;-1.30;99.90
21302;DHT22;10810;48.270;9.996;2023-02-28T03:01:19;0.40;99.90
21302;DHT22;10810;48.270;9.996;2023-02-28T03:03:55;0.50;99.90
21302;DHT22;10810;48.270;9.996;2023-02-28T03:06:26;0.40;99.90
21302;DHT22;10810;48.270;9.996;2023-02-28T03:08:53;0.00;99.90
21302;DHT22;10810;48.270;9.996;2023-02-28T03:11:23;-1.10;99.90
21302;DHT22;10810;48.270;9.996;2023-02-28T03:14:14;0.80;99.90
21302;DHT22;10810;48.270;9.996;2023-02-28T03:16:54;-1.30;99.90
21302;DHT22;10810;48.270;9.996;2023-02-28T03:19:34;0.00;99.90
21302;DHT22;10810;48.270;9.996;2023-02-28T03:22:14;-0.50;99.90
21302;DHT22;10810;48.270;9.996;2023-02-28T03:24:50;-1.10;99.90
21302;DHT22;10810;48.270;9.996;2023-02-28T03:27:25;-0.20;99.90
21302;DHT22;10810;48.270;9.996;2023-02-28T03:29:59;-0.10;99.90
21302;DHT22;10810;48.270;9.996;2023-02-28T03:32:29;0.70;99.90
21302;DHT22;10810;48.270;9.996;2023-02-28T03:35:00;0.30;99.90
21302;DHT22;10810;48.270;9.996;2023-02-28T03:37:33;-1.30;99.90
21302;DHT22;10810;48.270;9.996;2023-02-28T03:40:06;-0.20;99.90
21302;DHT22;10810;48.270;9.996;2023-02-28T03:42:38;-1.30;99.90
21302;DHT22;10810;48.270;9.996;2023-02-28T03:45:13;0.70;99.90
21302;DHT22;10810;48.270;9.996;2023-02-28T03:47:47;-1.80;99.90
21302;DHT22;10810;48.270;9.996;2023-02-28T03:50:21;-1.30;99.90
21302;DHT22;10810;48.270;9.996;2023-02-28T03:52:56;0.50;99.90
21302;DHT22;10810;48.270;9.996;2023-02-28T03:55:29;-1.30;99.90
21302;DHT22;10810;48.270;9.996;2023-02-28T03:58:08;0.10;99.90
21302;DHT22;10810;48.270;9.996;2023-02-28T04:00:41;-0.90;99.90
21302;DHT22;10810;48.270;9.996;2023-02-28T04:03:10;0.80;99.90
21302;DHT22;10810;48.270;9.996;2023-02-28T04:05:48;0.60;99.90
21302;DHT22;10810;48.270;9.996;2023-02-28T04:08:21;-1.30;99.90
21302;DHT22;10810;48.270;9.996;2023-02-28T04:11:00;-1.30;99.90
21302;DHT22;10810;48.270;9.996;2023-02-28T04:13:29;0.00;99.90
21302;DHT22;10810;48.270;9.996;2023-02-28T04:15:58;0.50;99.90
21302;DHT22;10810;48.270;9.996;2023-02-28T04:18:26;0.10;99.90
21302;DHT22;10810;48.270;9.996;2023-02-28T04:20:53;0.30;99.90
21302;DHT22;10810;48.270;9.996;2023-02-28T04:23:25;-0.70;99.90
21302;DHT22;10810;48.270;9.996;2023-02-28T04:25:57;-1.10;99.90
21302;DHT22;10810;48.270;9.996;2023-02-28T04:28:24;-1.30;99.90
21302;DHT22;10810;48.270;9.996;2023-02-28T04:30:55;0.80;99.90
21302;DHT22;10810;48.270;9.996;2023-02-28T04:33:22;-1.30;99.90
21302;DHT22;10810;48.270;9.996;2023-02-28T04:35:58;-1.00;99.90
21302;DHT22;10810;48.270;9.996;2023-02-28T04:38:33;0.20;99.90
21302;DHT22;10810;48.270;9.996;2023-02-28T04:41:03;0.50;99.90
21302;DHT22;10810;48.270;9.996;2023-02-28T04:43:31;0.20;99.90
21302;DHT22;10810;48.270;9.996;2023-02-28T04:46:06;-0.90;99.90
21302;DHT22;10810;48.270;9.996;2023-02-28T04:48:36;0.00;99.90
21302;DHT22;10810;48.270;9.996;2023-02-28T04:51:05;-0.70;99.90
21302;DHT22;10810;48.270;9.996;2023-02-28T04:53:34;-1.30;99.90
21302;DHT22;10810;48.270;9.996;2023-02-28T04:56:02;-1.20;99.90
21302;DHT22;10810;48.270;9.996;2023-02-28T04:58:30;0.10;99.90
21302;DHT22;10810;48.270;9.996;2023-02-28T05:01:02;0.00;99.90
21302;DHT22;10810;48.270;9.996;2023-02-28T05:03:29;-1.20;99.90
21302;DHT22;10810;48.270;9.996;2023-02-28T05:05:57;0.40;99.90
21302;DHT22;10810;48.270;9.996;2023-02-28T05:08:41;-1.20;99.90
21302;DHT22;10810;48.270;9.996;2023-02-28T05:11:14;0.00;99.90
21302;DHT22;10810;48.270;9.996;2023-02-28T05:13:42;-0.50;99.90
21302;DHT22;10810;48.270;9.996;2023-02-28T05:16:09;-1.30;99.90
21302;DHT22;10810;48.270;9.996;2023-02-28T05:18:36;-1.00;99.90
21302;DHT22;10810;48.270;9.996;2023-02-28T05:21:03;-1.30;99.90
21302;DHT22;10810;48.270;9.996;2023-02-28T05:23:30;-1.10;99.90
21302;DHT22;10810;48.270;9.996;2023-02-28T05:25:59;0.20;99.90
21302;DHT22;10810;48.270;9.996;2023-02-28T05:28:26;0.70;99.90
21302;DHT22;10810;48.270;9.996;2023-02-28T05:30:54;-1.20;99.90
21302;DHT22;10810;48.270;9.996;2023-02-28T05:33:21;-1.20;99.90
21302;DHT22;10810;48.270;9.996;2023-02-28T05:35:48;0.90;99.90
21302;DHT22;10810;48.270;9.996;2023-02-28T05:38:15;0.30;99.90
21302;DHT22;10810;48.270;9.996;2023-02-28T05:40:45;0.20;99.90
21302;DHT22;10810;48.270;9.996;2023-02-28T05:43:18;-1.30;99.90
21302;DHT22;10810;48.270;9.996;2023-02-28T05:45:45;-1.30;99.90
21302;DHT22;10810;48.270;9.996;2023-02-28T05:48:18;-1.30;99.90
21302;DHT22;10810;48.270;9.996;2023-02-28T05:50:45;0.90;99.90
21302;DHT22;10810;48.270;9.996;2023-02-28T05:53:12;-1.30;99.90
21302;DHT22;10810;48.270;9.996;2023-02-28T05:55:39;0.40;99.90
21302;DHT22;10810;48.270;9.996;2023-02-28T05:58:06;0.20;99.90
21302;DHT22;10810;48.270;9.996;2023-02-28T06:00:35;-0.80;99.90
21302;DHT22;10810;48.270;9.996;2023-02-28T06:03:16;-1.20;99.90
21302;DHT22;10810;48.270;9.996;2023-02-28T06:05:45;0.80;99.90
21302;DHT22;10810;48.270;9.996;2023-02-28T06:08:14;0.40;99.90
21302;DHT22;10810;48.270;9.996;2023-02-28T06:10:41;0.30;99.90
21302;DHT22;10810;48.270;9.996;2023-02-28T06:13:09;-1.20;99.90
21302;DHT22;10810;48.270;9.996;2023-02-28T06:15:38;-1.20;99.90
21302;DHT22;10810;48.270;9.996;2023-02-28T06:18:06;0.30;99.90
21302;DHT22;10810;48.270;9.996;2023-02-28T06:20:33;0.30;99.90
21302;DHT22;10810;48.270;9.996;2023-02-28T06:23:01;0.10;99.90
21302;DHT22;10810;48.270;9.996;2023-02-28T06:25:29;0.60;99.90
21302;DHT22;10810;48.270;9.996;2023-02-28T06:27:57;0.90;99.90
21302;DHT22;10810;48.270;9.996;2023-02-28T06:30:28;-1.30;99.90
21302;DHT22;10810;48.270;9.996;2023-02-28T06:33:01;-1.00;99.90
21302;DHT22;10810;48.270;9.996;2023-02-28T06:35:29;-1.50;99.90
21302;DHT22;10810;48.270;9.996;2023-02-28T06:37:56;0.80;99.90
21302;DHT22;10810;48.270;9.996;2023-02-28T06:40:30;-2.60;99.90
21302;DHT22;10810;48.270;9.996;2023-02-28T06:42:59;-1.10;99.90
21302;DHT22;10810;48.270;9.996;2023-02-28T06:45:26;-1.20;99.90
21302;DHT22;10810;48.270;9.996;2023-02-28T06:47:53;0.30;99.90
21302;DHT22;10810;48.270;9.996;2023-02-28T06:50:30;-0.20;99.90
21302;DHT22;10810;48.270;9.996;2023-02-28T06:52:58;-1.10;99.90
21302;DHT22;10810;48.270;9.996;2023-02-28T06:55:25;0.60;99.90
21302;DHT22;10810;48.270;9.996;2023-02-28T06:57:55;-1.20;99.90
21302;DHT22;10810;48.270;9.996;2023-02-28T07:00:24;0.30;99.90
21302;DHT22;10810;48.270;9.996;2023-02-28T07:02:53;-1.20;99.90
21302;DHT22;10810;48.270;9.996;2023-02-28T07:05:21;0.50;99.90
21302;DHT22;10810;48.270;9.996;2023-02-28T07:07:50;-1.20;99.90
21302;DHT22;10810;48.270;9.996;2023-02-28T07:10:18;0.60;99.90
21302;DHT22;10810;48.270;9.996;2023-02-28T07:12:46;-0.90;99.90
21302;DHT22;10810;48.270;9.996;2023-02-28T07:15:13;-1.20;99.90
21302;DHT22;10810;48.270;9.996;2023-02-28T07:17:40;-1.30;99.90
21302;DHT22;10810;48.270;9.996;2023-02-28T07:20:08;-1.20;99.90
21302;DHT22;10810;48.270;9.996;2023-02-28T07:22:35;-1.20;99.90
21302;DHT22;10810;48.270;9.996;2023-02-28T07:25:04;0.20;99.90
21302;DHT22;10810;48.270;9.996;2023-02-28T07:27:32;-0.80;99.90
21302;DHT22;10810;48.270;9.996;2023-02-28T07:29:59;0.00;99.90
21302;DHT22;10810;48.270;9.996;2023-02-28T07:32:29;-1.10;99.90
21302;DHT22;10810;48.270;9.996;2023-02-28T07:34:56;-1.10;99.90
21302;DHT22;10810;48.270;9.996;2023-02-28T07:37:23;0.40;99.90
21302;DHT22;10810;48.270;9.996;2023-02-28T07:39:50;-1.00;99.90
21302;DHT22;10810;48.270;9.996;2023-02-28T07:42:18;-1.00;99.90
21302;DHT22;10810;48.270;9.996;2023-02-28T07:44:46;-1.10;99.90
21302;DHT22;10810;48.270;9.996;2023-02-28T07:47:13;-1.10;99.90
21302;DHT22;10810;48.270;9.996;2023-02-28T07:49:40;-0.10;99.90
21302;DHT22;10810;48.270;9.996;2023-02-28T07:52:07;-1.00;99.90
21302;DHT22;10810;48.270;9.996;2023-02-28T07:54:34;-1.00;99.90
21302;DHT22;10810;48.270;9.996;2023-02-28T07:57:01;-0.80;99.90
21302;DHT22;10810;48.270;9.996;2023-02-28T07:59:30;-1.00;99.90
21302;DHT22;10810;48.270;9.996;2023-02-28T08:01:59;-1.00;99.90
21302;DHT22;10810;48.270;9.996;2023-02-28T08:04:26;-1.10;99.90
21302;DHT22;10810;48.270;9.996;2023-02-28T08:06:54;-1.00;99.90
21302;DHT22;10810;48.270;9.996;2023-02-28T08:09:37;-1.00;99.90
21302;DHT22;10810;48.270;9.996;2023-02-28T08:12:13;-0.90;99.90
21302;DHT22;10810;48.270;9.996;2023-02-28T08:17:38;0.60;99.90
21302;DHT22;10810;48.270;9.996;2023-02-28T08:20:07;0.90;99.90
21302;DHT22;10810;48.270;9.996;2023-02-28T08:22:37;-1.00;99.90
21302;DHT22;10810;48.270;9.996;2023-02-28T08:25:34;0.90;99.90
21302;DHT22;10810;48.270;9.996;2023-02-28T08:31:08;-1.00;99.90
21302;DHT22;10810;48.270;9.996;2023-02-28T08:33:58;-1.00;99.90
21302;DHT22;10810;48.270;9.996;2023-02-28T08:36:36;-0.90;99.90
21302;DHT22;10810;48.270;9.996;2023-02-28T08:39:13;-0.20;99.90
21302;DHT22;10810;48.270;9.996;2023-02-28T08:41:44;-0.50;99.90
21302;DHT22;10810;48.270;9.996;2023-02-28T08:44:13;1.10;99.90
21302;DHT22;10810;48.270;9.996;2023-02-28T08:46:40;0.70;99.90
21302;DHT22;10810;48.270;9.996;2023-02-28T08:49:12;0.90;99.90
21302;DHT22;10810;48.270;9.996;2023-02-28T08:51:41;0.30;99.90
21302;DHT22;10810;48.270;9.996;2023-02-28T08:54:08;0.40;99.90
21302;DHT22;10810;48.270;9.996;2023-02-28T08:56:38;-0.80;99.90
21302;DHT22;10810;48.270;9.996;2023-02-28T08:59:05;-0.60;99.90
21302;DHT22;10810;48.270;9.996;2023-02-28T09:01:32;0.70;99.90
21302;DHT22;10810;48.270;9.996;2023-02-28T09:03:59;0.00;99.90
21302;DHT22;10810;48.270;9.996;2023-02-28T09:06:29;-0.60;99.90
21302;DHT22;10810;48.270;9.996;2023-02-28T09:08:56;0.80;99.90
21302;DHT22;10810;48.270;9.996;2023-02-28T09:11:27;0.00;99.90
21302;DHT22;10810;48.270;9.996;2023-02-28T09:13:54;-0.70;99.90
21302;DHT22;10810;48.270;9.996;2023-02-28T09:16:22;0.00;99.90
21302;DHT22;10810;48.270;9.996;2023-02-28T09:18:49;0.50;99.90
21302;DHT22;10810;48.270;9.996;2023-02-28T09:21:17;-0.70;99.90
21302;DHT22;10810;48.270;9.996;2023-02-28T09:23:47;-0.40;99.90
21302;DHT22;10810;48.270;9.996;2023-02-28T09:26:18;0.90;99.90
21302;DHT22;10810;48.270;9.996;2023-02-28T09:28:46;0.00;99.90
21302;DHT22;10810;48.270;9.996;2023-02-28T09:31:14;0.40;99.90
21302;DHT22;10810;48.270;9.996;2023-02-28T09:33:41;-0.50;99.90
21302;DHT22;10810;48.270;9.996;2023-02-28T09:36:08;0.80;99.90
21302;DHT22;10810;48.270;9.996;2023-02-28T09:38:35;0.80;99.90
21302;DHT22;10810;48.270;9.996;2023-02-28T09:41:11;-0.50;99.90
21302;DHT22;10810;48.270;9.996;2023-02-28T09:43:43;-0.50;99.90
21302;DHT22;10810;48.270;9.996;2023-02-28T09:46:18;1.10;99.90
21302;DHT22;10810;48.270;9.996;2023-02-28T09:48:48;0.50;99.90
21302;DHT22;10810;48.270;9.996;2023-02-28T09:51:30;-0.50;99.90
21302;DHT22;10810;48.270;9.996;2023-02-28T09:53:59;-0.50;99.90
21302;DHT22;10810;48.270;9.996;2023-02-28T09:56:39;0.70;99.90
21302;DHT22;10810;48.270;9.996;2023-02-28T09:59:17;0.70;99.90
21302;DHT22;10810;48.270;9.996;2023-02-28T10:01:56;0.70;99.90
21302;DHT22;10810;48.270;9.996;2023-02-28T10:04:40;0.80;99.90
21302;DHT22;10810;48.270;9.996;2023-02-28T10:07:18;1.40;99.90
21302;DHT22;10810;48.270;9.996;2023-02-28T10:09:54;1.10;99.90
21302;DHT22;10810;48.270;9.996;2023-02-28T10:12:24;0.40;99.90
21302;DHT22;10810;48.270;9.996;2023-02-28T10:14:59;1.10;99.90
21302;DHT22;10810;48.270;9.996;2023-02-28T10:17:39;1.70;99.90
21302;DHT22;10810;48.270;9.996;2023-02-28T10:20:23;0.10;99.90
21302;DHT22;10810;48.270;9.996;2023-02-28T10:23:02;-0.10;99.90
21302;DHT22;10810;48.270;9.996;2023-02-28T10:25:45;0.30;99.90
21302;DHT22;10810;48.270;9.996;2023-02-28T10:28:18;1.10;99.90
21302;DHT22;10810;48.270;9.996;2023-02-28T10:30:48;1.20;99.90
21302;DHT22;10810;48.270;9.996;2023-02-28T10:33:22;1.20;99.90
21302;DHT22;10810;48.270;9.996;2023-02-28T10:35:51;0.10;99.90
21302;DHT22;10810;48.270;9.996;2023-02-28T10:38:21;0.10;99.90
21302;DHT22;10810;48.270;9.996;2023-02-28T10:40:48;1.20;99.90
21302;DHT22;10810;48.270;9.996;2023-02-28T10:43:21;1.30;99.90
21302;DHT22;10810;48.270;9.996;2023-02-28T10:46:01;0.70;99.90
21302;DHT22;10810;48.270;9.996;2023-02-28T10:48:34;0.30;99.90
21302;DHT22;10810;48.270;9.996;2023-02-28T10:51:05;0.20;99.90
21302;DHT22;10810;48.270;9.996;2023-02-28T10:53:45;0.20;99.90
21302;DHT22;10810;48.270;9.996;2023-02-28T10:56:16;0.70;99.90
21302;DHT22;10810;48.270;9.996;2023-02-28T10:59:01;0.20;99.90
21302;DHT22;10810;48.270;9.996;2023-02-28T11:01:37;0.80;99.90
21302;DHT22;10810;48.270;9.996;2023-02-28T11:04:17;0.40;99.90
21302;DHT22;10810;48.270;9.996;2023-02-28T11:06:45;0.80;99.90
21302;DHT22;10810;48.270;9.996;2023-02-28T11:09:22;0.60;99.90
21302;DHT22;10810;48.270;9.996;2023-02-28T11:11:51;1.80;99.90
21302;DHT22;10810;48.270;9.996;2023-02-28T11:14:22;1.10;99.90
21302;DHT22;10810;48.270;9.996;2023-02-28T11:17:13;1.30;99.90
21302;DHT22;10810;48.270;9.996;2023-02-28T11:19:48;1.20;99.90
21302;DHT22;10810;48.270;9.996;2023-02-28T11:22:19;1.70;99.90
21302;DHT22;10810;48.270;9.996;2023-02-28T11:24:50;1.40;99.90
21302;DHT22;10810;48.270;9.996;2023-02-28T11:27:45;1.30;99.90
21302;DHT22;10810;48.270;9.996;2023-02-28T11:30:40;1.50;99.90
21302;DHT22;10810;48.270;9.996;2023-02-28T11:33:26;1.00;99.90
21302;DHT22;10810;48.270;9.996;2023-02-28T11:35:57;1.00;99.90
21302;DHT22;10810;48.270;9.996;2023-02-28T11:38:26;1.00;99.90
21302;DHT22;10810;48.270;9.996;2023-02-28T11:41:07;1.00;99.90
21302;DHT22;10810;48.270;9.996;2023-02-28T11:43:57;1.00;99.90
21302;DHT22;10810;48.270;9.996;2023-02-28T11:50:09;1.10;99.90
21302;DHT22;10810;48.270;9.996;2023-02-28T11:53:05;1.10;99.90
21302;DHT22;10810;48.270;9.996;2023-02-28T11:56:03;1.30;99.90
21302;DHT22;10810;48.270;9.996;2023-02-28T11:58:59;1.10;99.90
21302;DHT22;10810;48.270;9.996;2023-02-28T12:01:53;1.20;99.90
21302;DHT22;10810;48.270;9.996;2023-02-28T12:04:36;1.10;99.90
21302;DHT22;10810;48.270;9.996;2023-02-28T12:07:12;1.20;99.90
21302;DHT22;10810;48.270;9.996;2023-02-28T12:09:51;1.40;99.90
21302;DHT22;10810;48.270;9.996;2023-02-28T12:13:04;1.40;99.90
21302;DHT22;10810;48.270;9.996;2023-02-28T12:16:17;1.40;99.90
21302;DHT22;10810;48.270;9.996;2023-02-28T12:22:48;1.40;99.90
21302;DHT22;10810;48.270;9.996;2023-02-28T12:25:44;1.50;99.90
21302;DHT22;10810;48.270;9.996;2023-02-28T12:30:06;1.60;99.90
21302;DHT22;10810;48.270;9.996;2023-02-28T12:31:30;1.70;99.90
21302;DHT22;10810;48.270;9.996;2023-02-28T12:34:43;1.60;99.90
21302;DHT22;10810;48.270;9.996;2023-02-28T12:48:05;1.70;99.90
21302;DHT22;10810;48.270;9.996;2023-02-28T12:55:27;1.40;99.90
21302;DHT22;10810;48.270;9.996;2023-02-28T12:58:01;2.00;99.90
21302;DHT22;10810;48.270;9.996;2023-02-28T13:04:52;2.30;99.90
21302;DHT22;10810;48.270;9.996;2023-02-28T13:07:46;2.30;99.90
21302;DHT22;10810;48.270;9.996;2023-02-28T13:10:16;2.20;99.90
21302;DHT22;10810;48.270;9.996;2023-02-28T13:12:48;2.70;99.90
21302;DHT22;10810;48.270;9.996;2023-02-28T13:15:18;2.30;99.90
21302;DHT22;10810;48.270;9.996;2023-02-28T13:17:50;2.50;99.90
21302;DHT22;10810;48.270;9.996;2023-02-28T13:20:21;2.50;99.90
21302;DHT22;10810;48.270;9.996;2023-02-28T13:22:51;2.60;99.90
21302;DHT22;10810;48.270;9.996;2023-02-28T13:25:50;2.50;99.90
21302;DHT22;10810;48.270;9.996;2023-02-28T13:34:36;2.50;99.90
21302;DHT22;10810;48.270;9.996;2023-02-28T13:37:33;2.60;99.90
21302;DHT22;10810;48.270;9.996;2023-02-28T13:40:28;2.60;99.90
21302;DHT22;10810;48.270;9.996;2023-02-28T13:42:55;2.60;99.90
21302;DHT22;10810;48.270;9.996;2023-02-28T13:45:26;2.60;99.90
21302;DHT22;10810;48.270;9.996;2023-02-28T13:48:04;2.60;99.90
21302;DHT22;10810;48.270;9.996;2023-02-28T13:50:47;2.70;99.90
21302;DHT22;10810;48.270;9.996;2023-02-28T13:53:55;2.70;99.90
21302;DHT22;10810;48.270;9.996;2023-02-28T13:56:33;2.80;99.90
21302;DHT22;10810;48.270;9.996;2023-02-28T13:59:12;2.90;99.90
21302;DHT22;10810;48.270;9.996;2023-02-28T14:01:53;3.00;99.90
21302;DHT22;10810;48.270;9.996;2023-02-28T14:07:56;3.10;99.90
21302;DHT22;10810;48.270;9.996;2023-02-28T14:11:23;3.30;99.90
21302;DHT22;10810;48.270;9.996;2023-02-28T14:19:44;3.40;99.90
21302;DHT22;10810;48.270;9.996;2023-02-28T14:21:43;3.40;99.90
21302;DHT22;10810;48.270;9.996;2023-02-28T14:28:08;3.30;99.90
21302;DHT22;10810;48.270;9.996;2023-02-28T14:31:12;2.90;99.90
21302;DHT22;10810;48.270;9.996;2023-02-28T14:34:45;2.90;99.90
21302;DHT22;10810;48.270;9.996;2023-02-28T14:38:13;3.10;99.90
21302;DHT22;10810;48.270;9.996;2023-02-28T14:40:52;3.00;99.90
21302;DHT22;10810;48.270;9.996;2023-02-28T14:43:46;3.40;99.90
21302;DHT22;10810;48.270;9.996;2023-02-28T14:51:08;3.70;99.90
21302;DHT22;10810;48.270;9.996;2023-02-28T14:53:57;3.60;99.90
21302;DHT22;10810;48.270;9.996;2023-02-28T14:58:24;3.50;99.80
21302;DHT22;10810;48.270;9.996;2023-02-28T14:59:45;3.70;99.90
21302;DHT22;10810;48.270;9.996;2023-02-28T15:02:21;3.70;99.70
21302;DHT22;10810;48.270;9.996;2023-02-28T15:05:02;3.70;99.90
21302;DHT22;10810;48.270;9.996;2023-02-28T15:08:28;3.60;99.90
21302;DHT22;10810;48.270;9.996;2023-02-28T15:12:31;3.00;99.90
21302;DHT22;10810;48.270;9.996;2023-02-28T15:14:46;3.50;99.90
21302;DHT22;10810;48.270;9.996;2023-02-28T15:17:19;3.50;99.90
21302;DHT22;10810;48.270;9.996;2023-02-28T15:19:51;3.50;99.90
21302;DHT22;10810;48.270;9.996;2023-02-28T15:22:28;3.60;99.90
21302;DHT22;10810;48.270;9.996;2023-02-28T15:25:00;3.50;99.90
21302;DHT22;10810;48.270;9.996;2023-02-28T15:27:41;3.50;99.90
21302;DHT22;10810;48.270;9.996;2023-02-28T15:30:17;3.50;99.90
21302;DHT22;10810;48.270;9.996;2023-02-28T15:32:47;3.60;99.90
21302;DHT22;10810;48.270;9.996;2023-02-28T15:35:30;3.40;99.90
21302;DHT22;10810;48.270;9.996;2023-02-28T15:38:00;3.30;99.90
21302;DHT22;10810;48.270;9.996;2023-02-28T15:40:29;3.40;99.90
21302;DHT22;10810;48.270;9.996;2023-02-28T15:43:03;3.20;99.90
21302;DHT22;10810;48.270;9.996;2023-02-28T15:45:43;3.20;99.90
21302;DHT22;10810;48.270;9.996;2023-02-28T15:48:16;3.20;99.80
21302;DHT22;10810;48.270;9.996;2023-02-28T15:50:48;3.20;99.90
21302;DHT22;10810;48.270;9.996;2023-02-28T15:53:18;3.30;99.90
21302;DHT22;10810;48.270;9.996;2023-02-28T15:56:12;3.40;99.90
21302;DHT22;10810;48.270;9.996;2023-02-28T15:58:43;3.20;99.90
21302;DHT22;10810;48.270;9.996;2023-02-28T16:01:24;3.30;99.90
21302;DHT22;10810;48.270;9.996;2023-02-28T16:03:54;3.20;99.90
21302;DHT22;10810;48.270;9.996;2023-02-28T16:06:37;3.10;99.90
21302;DHT22;10810;48.270;9.996;2023-02-28T16:09:08;3.10;99.90
21302;DHT22;10810;48.270;9.996;2023-02-28T16:11:39;3.10;99.90
21302;DHT22;10810;48.270;9.996;2023-02-28T16:14:14;3.10;99.90
21302;DHT22;10810;48.270;9.996;2023-02-28T16:16:48;3.10;99.90
21302;DHT22;10810;48.270;9.996;2023-02-28T16:19:16;3.00;99.90
21302;DHT22;10810;48.270;9.996;2023-02-28T16:21:43;3.10;99.90
21302;DHT22;10810;48.270;9.996;2023-02-28T16:24:10;3.00;99.90
21302;DHT22;10810;48.270;9.996;2023-02-28T16:26:38;3.00;99.90
21302;DHT22;10810;48.270;9.996;2023-02-28T16:29:07;3.00;99.90
21302;DHT22;10810;48.270;9.996;2023-02-28T16:31:37;2.90;99.90
21302;DHT22;10810;48.270;9.996;2023-02-28T16:34:06;3.00;99.90
21302;DHT22;10810;48.270;9.996;2023-02-28T16:36:33;3.00;99.90
21302;DHT22;10810;48.270;9.996;2023-02-28T16:39:00;2.90;99.90
21302;DHT22;10810;48.270;9.996;2023-02-28T16:41:28;2.90;99.90
21302;DHT22;10810;48.270;9.996;2023-02-28T16:43:57;2.90;99.90
21302;DHT22;10810;48.270;9.996;2023-02-28T16:46:30;2.90;99.90
21302;DHT22;10810;48.270;9.996;2023-02-28T16:48:58;2.80;99.90
21302;DHT22;10810;48.270;9.996;2023-02-28T16:51:27;2.70;99.90
21302;DHT22;10810;48.270;9.996;2023-02-28T16:53:55;2.70;99.90
21302;DHT22;10810;48.270;9.996;2023-02-28T16:56:24;2.70;99.90
21302;DHT22;10810;48.270;9.996;2023-02-28T16:58:51;2.60;99.90
21302;DHT22;10810;48.270;9.996;2023-02-28T17:01:22;2.50;99.90
21302;DHT22;10810;48.270;9.996;2023-02-28T17:03:50;2.50;99.90
21302;DHT22;10810;48.270;9.996;2023-02-28T17:06:20;2.40;99.90
21302;DHT22;10810;48.270;9.996;2023-02-28T17:08:50;2.50;99.90
21302;DHT22;10810;48.270;9.996;2023-02-28T17:11:18;2.40;99.90
21302;DHT22;10810;48.270;9.996;2023-02-28T17:13:46;2.40;99.90
21302;DHT22;10810;48.270;9.996;2023-02-28T17:16:24;2.40;99.90
21302;DHT22;10810;48.270;9.996;2023-02-28T17:18:54;2.40;99.90
21302;DHT22;10810;48.270;9.996;2023-02-28T17:21:21;2.40;99.90
21302;DHT22;10810;48.270;9.996;2023-02-28T17:27:30;2.40;99.90